sensor_id;sensor_type;location;lat;lon;timestamp;P1;durP1;ratioP1;P2;durP2;ratioP2
9102;SDS011;4587;51.434;6.788;2023-06-22T00:01:49;8.60;;;6.37;;
9102;SDS011;4587;51.434;6.788;2023-06-22T00:04:15;13.32;;;5.85;;
9102;SDS011;4587;51.434;6.788;2023-06-22T00:06:41;7.37;;;5.73;;
9102;SDS011;4587;51.434;6.788;2023-06-22T00:09:06;11.53;;;6.03;;
9102;SDS011;4587;51.434;6.788;2023-06-22T00:11:32;7.43;;;5.90;;
9102;SDS011;4587;51.434;6.788;2023-06-22T00:13:58;10.20;;;5.93;;
9102;SDS011;4587;51.434;6.788;2023-06-22T00:16:24;8.37;;;6.20;;
9102;SDS011;4587;51.434;6.788;2023-06-22T00:18:50;8.90;;;6.10;;
9102;SDS011;4587;51.434;6.788;2023-06-22T00:21:15;6.77;;;5.70;;
9102;SDS011;4587;51.434;6.788;2023-06-22T00:23:41;6.93;;;5.33;;
9102;SDS011;4587;51.434;6.788;2023-06-22T00:26:07;10.20;;;6.60;;
9102;SDS011;4587;51.434;6.788;2023-06-22T00:28:33;6.60;;;5.70;;
9102;SDS011;4587;51.434;6.788;2023-06-22T00:30:59;9.37;;;6.23;;
9102;SDS011;4587;51.434;6.788;2023-06-22T00:33:25;7.60;;;6.10;;
9102;SDS011;4587;51.434;6.788;2023-06-22T00:35:51;8.60;;;5.70;;
9102;SDS011;4587;51.434;6.788;2023-06-22T00:38:18;8.67;;;6.40;;
9102;SDS011;4587;51.434;6.788;2023-06-22T00:40:44;7.53;;;5.87;;
9102;SDS011;4587;51.434;6.788;2023-06-22T00:43:09;7.17;;;5.90;;
9102;SDS011;4587;51.434;6.788;2023-06-22T00:45:35;10.73;;;6.40;;
9102;SDS011;4587;51.434;6.788;2023-06-22T00:48:01;8.17;;;6.20;;
9102;SDS011;4587;51.434;6.788;2023-06-22T00:50:31;8.80;;;6.13;;
9102;SDS011;4587;51.434;6.788;2023-06-22T00:53:03;7.97;;;6.27;;
9102;SDS011;4587;51.434;6.788;2023-06-22T00:55:33;8.67;;;6.53;;
9102;SDS011;4587;51.434;6.788;2023-06-22T00:58:02;7.97;;;6.50;;
9102;SDS011;4587;51.434;6.788;2023-06-22T01:00:30;9.43;;;6.97;;
9102;SDS011;4587;51.434;6.788;2023-06-22T01:02:57;7.33;;;6.23;;
9102;SDS011;4587;51.434;6.788;2023-06-22T01:05:23;8.80;;;6.80;;
9102;SDS011;4587;51.434;6.788;2023-06-22T01:10:53;8.07;;;6.90;;
9102;SDS011;4587;51.434;6.788;2023-06-22T01:16:07;11.83;;;6.60;;
9102;SDS011;4587;51.434;6.788;2023-06-22T01:18:35;8.07;;;7.03;;
9102;SDS011;4587;51.434;6.788;2023-06-22T01:21:05;8.90;;;6.70;;
9102;SDS011;4587;51.434;6.788;2023-06-22T01:26:14;8.83;;;6.47;;
9102;SDS011;4587;51.434;6.788;2023-06-22T01:28:54;8.70;;;6.33;;
9102;SDS011;4587;51.434;6.788;2023-06-22T01:31:23;12.30;;;7.00;;
9102;SDS011;4587;51.434;6.788;2023-06-22T01:33:52;7.70;;;7.00;;
9102;SDS011;4587;51.434;6.788;2023-06-22T01:36:20;8.33;;;6.80;;
9102;SDS011;4587;51.434;6.788;2023-06-22T01:38:47;8.07;;;6.50;;
9102;SDS011;4587;51.434;6.788;2023-06-22T01:41:14;8.33;;;6.57;;
9102;SDS011;4587;51.434;6.788;2023-06-22T01:43:41;9.33;;;7.20;;
9102;SDS011;4587;51.434;6.788;2023-06-22T01:46:08;8.97;;;7.00;;
9102;SDS011;4587;51.434;6.788;2023-06-22T01:48:34;7.67;;;6.50;;
9102;SDS011;4587;51.434;6.788;2023-06-22T01:51:00;9.00;;;6.70;;
9102;SDS011;4587;51.434;6.788;2023-06-22T01:53:26;9.80;;;6.57;;
9102;SDS011;4587;51.434;6.788;2023-06-22T01:55:52;11.27;;;6.80;;
9102;SDS011;4587;51.434;6.788;2023-06-22T01:58:17;8.80;;;6.20;;
9102;SDS011;4587;51.434;6.788;2023-06-22T02:00:50;10.10;;;6.90;;
9102;SDS011;4587;51.434;6.788;2023-06-22T02:03:32;7.63;;;6.10;;
9102;SDS011;4587;51.434;6.788;2023-06-22T02:06:03;9.00;;;6.70;;
9102;SDS011;4587;51.434;6.788;2023-06-22T02:08:33;8.80;;;7.00;;
9102;SDS011;4587;51.434;6.788;2023-06-22T02:11:07;9.27;;;6.73;;
9102;SDS011;4587;51.434;6.788;2023-06-22T02:13:36;9.80;;;7.70;;
9102;SDS011;4587;51.434;6.788;2023-06-22T02:16:02;9.37;;;7.40;;
9102;SDS011;4587;51.434;6.788;2023-06-22T02:18:28;8.83;;;7.47;;
9102;SDS011;4587;51.434;6.788;2023-06-22T02:20:54;11.10;;;7.53;;
9102;SDS011;4587;51.434;6.788;2023-06-22T02:23:19;11.93;;;7.63;;
9102;SDS011;4587;51.434;6.788;2023-06-22T02:25:45;9.90;;;7.03;;
9102;SDS011;4587;51.434;6.788;2023-06-22T02:28:11;10.07;;;6.80;;
9102;SDS011;4587;51.434;6.788;2023-06-22T02:30:36;11.07;;;8.30;;
9102;SDS011;4587;51.434;6.788;2023-06-22T02:33:02;9.73;;;6.90;;
9102;SDS011;4587;51.434;6.788;2023-06-22T02:35:28;8.40;;;7.57;;
9102;SDS011;4587;51.434;6.788;2023-06-22T02:37:57;11.30;;;7.23;;
9102;SDS011;4587;51.434;6.788;2023-06-22T02:40:25;9.77;;;6.40;;
9102;SDS011;4587;51.434;6.788;2023-06-22T02:42:51;12.27;;;7.53;;
9102;SDS011;4587;51.434;6.788;2023-06-22T02:45:17;10.03;;;8.10;;
9102;SDS011;4587;51.434;6.788;2023-06-22T02:47:43;12.70;;;7.93;;
9102;SDS011;4587;51.434;6.788;2023-06-22T02:50:08;10.57;;;8.13;;
9102;SDS011;4587;51.434;6.788;2023-06-22T02:52:34;12.43;;;8.30;;
9102;SDS011;4587;51.434;6.788;2023-06-22T02:55:00;10.97;;;8.17;;
9102;SDS011;4587;51.434;6.788;2023-06-22T02:57:26;12.33;;;8.53;;
9102;SDS011;4587;51.434;6.788;2023-06-22T02:59:51;10.93;;;7.93;;
9102;SDS011;4587;51.434;6.788;2023-06-22T03:02:17;9.07;;;8.20;;
9102;SDS011;4587;51.434;6.788;2023-06-22T03:04:45;9.77;;;8.53;;
9102;SDS011;4587;51.434;6.788;2023-06-22T03:07:14;12.10;;;7.83;;
9102;SDS011;4587;51.434;6.788;2023-06-22T03:09:39;10.47;;;8.53;;
9102;SDS011;4587;51.434;6.788;2023-06-22T03:12:07;8.17;;;7.20;;
9102;SDS011;4587;51.434;6.788;2023-06-22T03:14:33;10.17;;;7.43;;
9102;SDS011;4587;51.434;6.788;2023-06-22T03:16:58;9.97;;;8.00;;
9102;SDS011;4587;51.434;6.788;2023-06-22T03:19:28;15.00;;;8.60;;
9102;SDS011;4587;51.434;6.788;2023-06-22T03:21:56;10.37;;;8.87;;
9102;SDS011;4587;51.434;6.788;2023-06-22T03:24:22;10.53;;;8.67;;
9102;SDS011;4587;51.434;6.788;2023-06-22T03:26:48;9.80;;;8.27;;
9102;SDS011;4587;51.434;6.788;2023-06-22T03:29:13;10.67;;;9.00;;
9102;SDS011;4587;51.434;6.788;2023-06-22T03:31:39;9.90;;;8.53;;
9102;SDS011;4587;51.434;6.788;2023-06-22T03:34:04;9.77;;;8.30;;
9102;SDS011;4587;51.434;6.788;2023-06-22T03:36:30;9.13;;;8.23;;
9102;SDS011;4587;51.434;6.788;2023-06-22T03:38:56;10.93;;;8.87;;
9102;SDS011;4587;51.434;6.788;2023-06-22T03:41:21;11.47;;;8.80;;
9102;SDS011;4587;51.434;6.788;2023-06-22T03:43:47;11.67;;;8.83;;
9102;SDS011;4587;51.434;6.788;2023-06-22T03:46:13;12.77;;;9.40;;
9102;SDS011;4587;51.434;6.788;2023-06-22T03:48:38;11.47;;;8.97;;
9102;SDS011;4587;51.434;6.788;2023-06-22T03:51:04;12.20;;;9.40;;
9102;SDS011;4587;51.434;6.788;2023-06-22T03:53:29;14.37;;;9.43;;
9102;SDS011;4587;51.434;6.788;2023-06-22T03:55:55;13.17;;;10.40;;
9102;SDS011;4587;51.434;6.788;2023-06-22T03:58:21;10.70;;;9.30;;
9102;SDS011;4587;51.434;6.788;2023-06-22T04:00:51;11.27;;;8.90;;
9102;SDS011;4587;51.434;6.788;2023-06-22T04:03:17;12.40;;;9.70;;
9102;SDS011;4587;51.434;6.788;2023-06-22T04:05:44;14.07;;;10.27;;
9102;SDS011;4587;51.434;6.788;2023-06-22T04:08:10;11.60;;;10.20;;
9102;SDS011;4587;51.434;6.788;2023-06-22T04:10:37;11.67;;;9.97;;
9102;SDS011;4587;51.434;6.788;2023-06-22T04:13:02;13.37;;;10.17;;
9102;SDS011;4587;51.434;6.788;2023-06-22T04:15:28;11.53;;;10.03;;
9102;SDS011;4587;51.434;6.788;2023-06-22T04:17:54;13.50;;;10.20;;
9102;SDS011;4587;51.434;6.788;2023-06-22T04:20:20;12.33;;;10.60;;
9102;SDS011;4587;51.434;6.788;2023-06-22T04:22:46;12.10;;;10.43;;
9102;SDS011;4587;51.434;6.788;2023-06-22T04:25:11;12.27;;;10.47;;
9102;SDS011;4587;51.434;6.788;2023-06-22T04:27:37;13.40;;;10.30;;
9102;SDS011;4587;51.434;6.788;2023-06-22T04:30:06;14.60;;;10.67;;
9102;SDS011;4587;51.434;6.788;2023-06-22T04:32:33;11.43;;;10.27;;
9102;SDS011;4587;51.434;6.788;2023-06-22T04:35:01;12.93;;;11.60;;
9102;SDS011;4587;51.434;6.788;2023-06-22T04:37:27;12.70;;;10.73;;
9102;SDS011;4587;51.434;6.788;2023-06-22T04:39:53;12.70;;;10.37;;
9102;SDS011;4587;51.434;6.788;2023-06-22T04:42:18;12.17;;;10.93;;
9102;SDS011;4587;51.434;6.788;2023-06-22T04:44:44;12.07;;;10.60;;
9102;SDS011;4587;51.434;6.788;2023-06-22T04:47:09;14.03;;;11.83;;
9102;SDS011;4587;51.434;6.788;2023-06-22T04:49:35;13.20;;;11.90;;
9102;SDS011;4587;51.434;6.788;2023-06-22T04:54:28;14.63;;;11.33;;
9102;SDS011;4587;51.434;6.788;2023-06-22T04:56:54;13.73;;;11.03;;
9102;SDS011;4587;51.434;6.788;2023-06-22T04:59:23;13.37;;;11.53;;
9102;SDS011;4587;51.434;6.788;2023-06-22T05:01:53;12.87;;;11.50;;
9102;SDS011;4587;51.434;6.788;2023-06-22T05:04:19;12.73;;;11.43;;
9102;SDS011;4587;51.434;6.788;2023-06-22T05:06:47;12.93;;;11.57;;
9102;SDS011;4587;51.434;6.788;2023-06-22T05:09:13;12.63;;;11.33;;
9102;SDS011;4587;51.434;6.788;2023-06-22T05:11:38;12.93;;;11.63;;
9102;SDS011;4587;51.434;6.788;2023-06-22T05:14:04;12.57;;;11.27;;
9102;SDS011;4587;51.434;6.788;2023-06-22T05:16:29;13.30;;;11.93;;
9102;SDS011;4587;51.434;6.788;2023-06-22T05:18:55;12.83;;;11.30;;
9102;SDS011;4587;51.434;6.788;2023-06-22T05:21:24;15.00;;;11.83;;
9102;SDS011;4587;51.434;6.788;2023-06-22T05:23:51;12.60;;;11.17;;
9102;SDS011;4587;51.434;6.788;2023-06-22T05:26:20;15.03;;;12.67;;
9102;SDS011;4587;51.434;6.788;2023-06-22T05:28:46;12.77;;;11.47;;
9102;SDS011;4587;51.434;6.788;2023-06-22T05:31:13;15.07;;;12.20;;
9102;SDS011;4587;51.434;6.788;2023-06-22T05:33:40;13.23;;;11.87;;
9102;SDS011;4587;51.434;6.788;2023-06-22T05:36:09;13.30;;;11.93;;
9102;SDS011;4587;51.434;6.788;2023-06-22T05:38:35;14.50;;;11.60;;
9102;SDS011;4587;51.434;6.788;2023-06-22T05:41:01;13.87;;;11.90;;
9102;SDS011;4587;51.434;6.788;2023-06-22T05:43:27;12.63;;;11.30;;
9102;SDS011;4587;51.434;6.788;2023-06-22T05:45:53;12.93;;;11.17;;
9102;SDS011;4587;51.434;6.788;2023-06-22T05:48:18;13.47;;;12.07;;
9102;SDS011;4587;51.434;6.788;2023-06-22T05:50:44;13.30;;;12.00;;
9102;SDS011;4587;51.434;6.788;2023-06-22T05:53:10;13.50;;;11.53;;
9102;SDS011;4587;51.434;6.788;2023-06-22T05:55:35;13.87;;;11.80;;
9102;SDS011;4587;51.434;6.788;2023-06-22T05:58:01;14.63;;;12.33;;
9102;SDS011;4587;51.434;6.788;2023-06-22T06:00:28;14.80;;;13.00;;
9102;SDS011;4587;51.434;6.788;2023-06-22T06:02:54;14.57;;;12.23;;
9102;SDS011;4587;51.434;6.788;2023-06-22T06:05:19;15.33;;;12.27;;
9102;SDS011;4587;51.434;6.788;2023-06-22T06:07:45;14.20;;;11.70;;
9102;SDS011;4587;51.434;6.788;2023-06-22T06:10:11;15.97;;;12.57;;
9102;SDS011;4587;51.434;6.788;2023-06-22T06:12:37;13.67;;;12.23;;
9102;SDS011;4587;51.434;6.788;2023-06-22T06:15:03;14.47;;;12.93;;
9102;SDS011;4587;51.434;6.788;2023-06-22T06:17:29;15.00;;;13.50;;
9102;SDS011;4587;51.434;6.788;2023-06-22T06:19:55;13.90;;;12.40;;
9102;SDS011;4587;51.434;6.788;2023-06-22T06:22:21;15.43;;;13.30;;
9102;SDS011;4587;51.434;6.788;2023-06-22T06:24:48;14.23;;;12.60;;
9102;SDS011;4587;51.434;6.788;2023-06-22T06:27:14;15.37;;;13.67;;
9102;SDS011;4587;51.434;6.788;2023-06-22T06:29:39;14.53;;;13.03;;
9102;SDS011;4587;51.434;6.788;2023-06-22T06:32:05;15.63;;;14.07;;
9102;SDS011;4587;51.434;6.788;2023-06-22T06:34:31;17.13;;;14.43;;
9102;SDS011;4587;51.434;6.788;2023-06-22T06:36:57;14.70;;;13.20;;
9102;SDS011;4587;51.434;6.788;2023-06-22T06:39:22;17.17;;;14.57;;
9102;SDS011;4587;51.434;6.788;2023-06-22T06:41:48;16.93;;;14.07;;
9102;SDS011;4587;51.434;6.788;2023-06-22T06:44:13;17.00;;;14.67;;
9102;SDS011;4587;51.434;6.788;2023-06-22T06:46:39;15.83;;;14.17;;
9102;SDS011;4587;51.434;6.788;2023-06-22T06:49:05;16.43;;;14.73;;
9102;SDS011;4587;51.434;6.788;2023-06-22T06:51:30;17.40;;;15.73;;
9102;SDS011;4587;51.434;6.788;2023-06-22T06:53:56;17.37;;;14.43;;
9102;SDS011;4587;51.434;6.788;2023-06-22T06:56:21;19.50;;;15.70;;
9102;SDS011;4587;51.434;6.788;2023-06-22T06:58:49;20.57;;;16.30;;
9102;SDS011;4587;51.434;6.788;2023-06-22T07:01:16;19.13;;;15.70;;
9102;SDS011;4587;51.434;6.788;2023-06-22T07:03:41;20.27;;;16.37;;
9102;SDS011;4587;51.434;6.788;2023-06-22T07:06:08;18.77;;;15.33;;
9102;SDS011;4587;51.434;6.788;2023-06-22T07:08:34;16.80;;;15.13;;
9102;SDS011;4587;51.434;6.788;2023-06-22T07:11:01;17.13;;;14.83;;
9102;SDS011;4587;51.434;6.788;2023-06-22T07:13:27;18.07;;;15.27;;
9102;SDS011;4587;51.434;6.788;2023-06-22T07:15:52;17.03;;;15.23;;
9102;SDS011;4587;51.434;6.788;2023-06-22T07:18:18;18.63;;;15.23;;
9102;SDS011;4587;51.434;6.788;2023-06-22T07:20:43;17.30;;;15.70;;
9102;SDS011;4587;51.434;6.788;2023-06-22T07:23:09;18.43;;;16.27;;
9102;SDS011;4587;51.434;6.788;2023-06-22T07:25:35;18.20;;;16.30;;
9102;SDS011;4587;51.434;6.788;2023-06-22T07:28:01;16.70;;;14.87;;
9102;SDS011;4587;51.434;6.788;2023-06-22T07:30:29;18.37;;;16.47;;
9102;SDS011;4587;51.434;6.788;2023-06-22T07:32:56;18.30;;;16.40;;
9102;SDS011;4587;51.434;6.788;2023-06-22T07:35:23;17.67;;;15.80;;
9102;SDS011;4587;51.434;6.788;2023-06-22T07:37:48;19.40;;;15.47;;
9102;SDS011;4587;51.434;6.788;2023-06-22T07:40:14;18.00;;;16.40;;
9102;SDS011;4587;51.434;6.788;2023-06-22T07:42:40;18.17;;;16.20;;
9102;SDS011;4587;51.434;6.788;2023-06-22T07:45:06;18.40;;;16.50;;
9102;SDS011;4587;51.434;6.788;2023-06-22T07:47:33;18.20;;;16.27;;
9102;SDS011;4587;51.434;6.788;2023-06-22T07:50:00;19.20;;;17.13;;
9102;SDS011;4587;51.434;6.788;2023-06-22T07:52:27;18.53;;;16.60;;
9102;SDS011;4587;51.434;6.788;2023-06-22T07:54:53;19.17;;;17.17;;
9102;SDS011;4587;51.434;6.788;2023-06-22T07:57:19;18.80;;;17.00;;
9102;SDS011;4587;51.434;6.788;2023-06-22T07:59:45;17.33;;;15.53;;
9102;SDS011;4587;51.434;6.788;2023-06-22T08:02:11;20.33;;;16.87;;
9102;SDS011;4587;51.434;6.788;2023-06-22T08:04:37;19.07;;;17.17;;
9102;SDS011;4587;51.434;6.788;2023-06-22T08:07:03;19.27;;;17.40;;
9102;SDS011;4587;51.434;6.788;2023-06-22T08:09:29;20.07;;;16.97;;
9102;SDS011;4587;51.434;6.788;2023-06-22T08:11:56;21.67;;;18.03;;
9102;SDS011;4587;51.434;6.788;2023-06-22T08:14:22;20.47;;;17.87;;
9102;SDS011;4587;51.434;6.788;2023-06-22T08:16:51;17.37;;;15.80;;
9102;SDS011;4587;51.434;6.788;2023-06-22T08:19:17;23.13;;;17.23;;
9102;SDS011;4587;51.434;6.788;2023-06-22T08:21:43;23.50;;;17.73;;
9102;SDS011;4587;51.434;6.788;2023-06-22T08:24:08;19.57;;;16.53;;
9102;SDS011;4587;51.434;6.788;2023-06-22T08:26:34;23.00;;;17.00;;
9102;SDS011;4587;51.434;6.788;2023-06-22T08:29:04;19.10;;;17.27;;
9102;SDS011;4587;51.434;6.788;2023-06-22T08:31:30;21.80;;;18.20;;
9102;SDS011;4587;51.434;6.788;2023-06-22T08:33:58;20.77;;;17.57;;
9102;SDS011;4587;51.434;6.788;2023-06-22T08:36:24;19.70;;;17.60;;
9102;SDS011;4587;51.434;6.788;2023-06-22T08:38:49;20.23;;;18.03;;
9102;SDS011;4587;51.434;6.788;2023-06-22T08:41:16;20.77;;;17.73;;
9102;SDS011;4587;51.434;6.788;2023-06-22T08:43:42;20.50;;;17.67;;
9102;SDS011;4587;51.434;6.788;2023-06-22T08:46:09;18.80;;;16.97;;
9102;SDS011;4587;51.434;6.788;2023-06-22T08:48:35;21.70;;;17.90;;
9102;SDS011;4587;51.434;6.788;2023-06-22T08:51:01;19.80;;;17.70;;
9102;SDS011;4587;51.434;6.788;2023-06-22T08:53:28;19.83;;;17.73;;
9102;SDS011;4587;51.434;6.788;2023-06-22T08:55:53;19.77;;;17.30;;
9102;SDS011;4587;51.434;6.788;2023-06-22T08:58:19;19.97;;;17.10;;
9102;SDS011;4587;51.434;6.788;2023-06-22T09:00:46;21.47;;;17.33;;
9102;SDS011;4587;51.434;6.788;2023-06-22T09:03:12;19.93;;;17.70;;
9102;SDS011;4587;51.434;6.788;2023-06-22T09:05:37;19.80;;;17.07;;
9102;SDS011;4587;51.434;6.788;2023-06-22T09:08:03;21.23;;;18.27;;
9102;SDS011;4587;51.434;6.788;2023-06-22T09:10:29;20.03;;;18.07;;
9102;SDS011;4587;51.434;6.788;2023-06-22T09:12:54;19.10;;;17.27;;
9102;SDS011;4587;51.434;6.788;2023-06-22T09:15:20;18.63;;;16.70;;
9102;SDS011;4587;51.434;6.788;2023-06-22T09:17:46;19.30;;;17.23;;
9102;SDS011;4587;51.434;6.788;2023-06-22T09:20:11;20.30;;;17.13;;
9102;SDS011;4587;51.434;6.788;2023-06-22T09:22:37;19.90;;;17.70;;
9102;SDS011;4587;51.434;6.788;2023-06-22T09:25:04;18.73;;;16.77;;
9102;SDS011;4587;51.434;6.788;2023-06-22T09:27:30;19.47;;;16.93;;
9102;SDS011;4587;51.434;6.788;2023-06-22T09:29:55;18.40;;;16.60;;
9102;SDS011;4587;51.434;6.788;2023-06-22T09:32:23;19.07;;;17.10;;
9102;SDS011;4587;51.434;6.788;2023-06-22T09:34:49;18.90;;;16.90;;
9102;SDS011;4587;51.434;6.788;2023-06-22T09:37:14;20.20;;;18.20;;
9102;SDS011;4587;51.434;6.788;2023-06-22T09:39:40;19.00;;;16.53;;
9102;SDS011;4587;51.434;6.788;2023-06-22T09:42:06;18.83;;;17.03;;
9102;SDS011;4587;51.434;6.788;2023-06-22T09:44:31;19.57;;;17.63;;
9102;SDS011;4587;51.434;6.788;2023-06-22T09:46:57;18.57;;;16.27;;
9102;SDS011;4587;51.434;6.788;2023-06-22T09:49:22;17.40;;;15.50;;
9102;SDS011;4587;51.434;6.788;2023-06-22T09:51:48;18.48;;;16.45;;
9102;SDS011;4587;51.434;6.788;2023-06-22T09:54:15;17.85;;;16.17;;
9102;SDS011;4587;51.434;6.788;2023-06-22T09:56:41;20.08;;;17.98;;
9102;SDS011;4587;51.434;6.788;2023-06-22T09:59:07;19.73;;;17.52;;
9102;SDS011;4587;51.434;6.788;2023-06-22T10:01:32;18.92;;;17.23;;
9102;SDS011;4587;51.434;6.788;2023-06-22T10:03:58;18.20;;;16.42;;
9102;SDS011;4587;51.434;6.788;2023-06-22T10:06:23;17.98;;;15.98;;
9102;SDS011;4587;51.434;6.788;2023-06-22T10:08:50;17.10;;;15.45;;
9102;SDS011;4587;51.434;6.788;2023-06-22T10:11:16;17.63;;;15.50;;
9102;SDS011;4587;51.434;6.788;2023-06-22T10:13:41;21.55;;;16.38;;
9102;SDS011;4587;51.434;6.788;2023-06-22T10:16:07;17.50;;;15.68;;
9102;SDS011;4587;51.434;6.788;2023-06-22T10:18:33;17.15;;;14.60;;
9102;SDS011;4587;51.434;6.788;2023-06-22T10:20:58;15.18;;;13.38;;
9102;SDS011;4587;51.434;6.788;2023-06-22T10:23:25;14.88;;;13.35;;
9102;SDS011;4587;51.434;6.788;2023-06-22T10:25:50;15.30;;;13.80;;
9102;SDS011;4587;51.434;6.788;2023-06-22T10:28:16;15.20;;;13.70;;
9102;SDS011;4587;51.434;6.788;2023-06-22T10:30:42;14.25;;;12.52;;
9102;SDS011;4587;51.434;6.788;2023-06-22T10:33:08;15.88;;;14.27;;
9102;SDS011;4587;51.434;6.788;2023-06-22T10:35:34;14.75;;;13.15;;
9102;SDS011;4587;51.434;6.788;2023-06-22T10:38:02;14.20;;;12.90;;
9102;SDS011;4587;51.434;6.788;2023-06-22T10:40:28;14.75;;;13.25;;
9102;SDS011;4587;51.434;6.788;2023-06-22T10:42:53;14.77;;;13.27;;
9102;SDS011;4587;51.434;6.788;2023-06-22T10:45:19;14.88;;;13.40;;
9102;SDS011;4587;51.434;6.788;2023-06-22T10:47:45;14.80;;;13.40;;
9102;SDS011;4587;51.434;6.788;2023-06-22T10:50:10;15.10;;;12.40;;
9102;SDS011;4587;51.434;6.788;2023-06-22T10:52:36;13.52;;;12.23;;
9102;SDS011;4587;51.434;6.788;2023-06-22T10:55:02;15.88;;;13.32;;
9102;SDS011;4587;51.434;6.788;2023-06-22T10:57:28;14.88;;;13.23;;
9102;SDS011;4587;51.434;6.788;2023-06-22T10:59:54;15.13;;;13.65;;
9102;SDS011;4587;51.434;6.788;2023-06-22T11:02:20;13.77;;;12.60;;
9102;SDS011;4587;51.434;6.788;2023-06-22T11:04:45;17.90;;;13.60;;
9102;SDS011;4587;51.434;6.788;2023-06-22T11:07:12;16.15;;;13.27;;
9102;SDS011;4587;51.434;6.788;2023-06-22T11:09:38;16.92;;;13.55;;
9102;SDS011;4587;51.434;6.788;2023-06-22T11:12:04;13.40;;;12.10;;
9102;SDS011;4587;51.434;6.788;2023-06-22T11:14:30;12.82;;;11.73;;
9102;SDS011;4587;51.434;6.788;2023-06-22T11:16:56;14.73;;;13.32;;
9102;SDS011;4587;51.434;6.788;2023-06-22T11:19:22;14.15;;;12.60;;
9102;SDS011;4587;51.434;6.788;2023-06-22T11:21:47;13.65;;;12.25;;
9102;SDS011;4587;51.434;6.788;2023-06-22T11:24:13;13.40;;;12.15;;
9102;SDS011;4587;51.434;6.788;2023-06-22T11:26:38;14.07;;;12.68;;
9102;SDS011;4587;51.434;6.788;2023-06-22T11:29:04;14.63;;;12.93;;
9102;SDS011;4587;51.434;6.788;2023-06-22T11:31:30;17.42;;;14.25;;
9102;SDS011;4587;51.434;6.788;2023-06-22T11:33:57;15.05;;;13.75;;
9102;SDS011;4587;51.434;6.788;2023-06-22T11:36:23;16.63;;;15.00;;
9102;SDS011;4587;51.434;6.788;2023-06-22T11:38:48;17.95;;;15.48;;
9102;SDS011;4587;51.434;6.788;2023-06-22T11:41:14;17.95;;;16.17;;
9102;SDS011;4587;51.434;6.788;2023-06-22T11:43:39;17.80;;;16.20;;
9102;SDS011;4587;51.434;6.788;2023-06-22T11:46:05;17.38;;;15.60;;
9102;SDS011;4587;51.434;6.788;2023-06-22T11:48:31;18.67;;;16.98;;
9102;SDS011;4587;51.434;6.788;2023-06-22T11:50:57;18.13;;;16.33;;
9102;SDS011;4587;51.434;6.788;2023-06-22T11:53:25;20.45;;;18.63;;
9102;SDS011;4587;51.434;6.788;2023-06-22T11:55:51;19.83;;;17.65;;
9102;SDS011;4587;51.434;6.788;2023-06-22T11:58:17;22.33;;;17.93;;
9102;SDS011;4587;51.434;6.788;2023-06-22T12:00:43;19.20;;;17.38;;
9102;SDS011;4587;51.434;6.788;2023-06-22T12:03:10;21.33;;;19.20;;
9102;SDS011;4587;51.434;6.788;2023-06-22T12:05:36;23.75;;;21.27;;
9102;SDS011;4587;51.434;6.788;2023-06-22T12:08:02;21.08;;;19.17;;
9102;SDS011;4587;51.434;6.788;2023-06-22T12:10:27;22.13;;;19.93;;
9102;SDS011;4587;51.434;6.788;2023-06-22T12:12:56;20.83;;;18.80;;
9102;SDS011;4587;51.434;6.788;2023-06-22T12:15:22;23.40;;;21.03;;
9102;SDS011;4587;51.434;6.788;2023-06-22T12:17:48;22.60;;;20.60;;
9102;SDS011;4587;51.434;6.788;2023-06-22T12:20:14;21.97;;;19.87;;
9102;SDS011;4587;51.434;6.788;2023-06-22T12:22:40;23.57;;;21.27;;
9102;SDS011;4587;51.434;6.788;2023-06-22T12:25:07;24.20;;;21.63;;
9102;SDS011;4587;51.434;6.788;2023-06-22T12:27:33;24.33;;;21.87;;
9102;SDS011;4587;51.434;6.788;2023-06-22T12:30:00;25.27;;;22.73;;
9102;SDS011;4587;51.434;6.788;2023-06-22T12:32:25;24.50;;;21.87;;
9102;SDS011;4587;51.434;6.788;2023-06-22T12:34:51;25.97;;;23.17;;
9102;SDS011;4587;51.434;6.788;2023-06-22T12:37:17;24.80;;;22.30;;
9102;SDS011;4587;51.434;6.788;2023-06-22T12:39:43;26.80;;;22.70;;
9102;SDS011;4587;51.434;6.788;2023-06-22T12:42:09;25.30;;;21.15;;
9102;SDS011;4587;51.434;6.788;2023-06-22T12:44:37;26.98;;;22.73;;
9102;SDS011;4587;51.434;6.788;2023-06-22T12:47:06;26.48;;;23.70;;
9102;SDS011;4587;51.434;6.788;2023-06-22T12:49:33;24.70;;;22.17;;
9102;SDS011;4587;51.434;6.788;2023-06-22T12:51:59;23.63;;;21.63;;
9102;SDS011;4587;51.434;6.788;2023-06-22T12:54:25;25.50;;;22.00;;
9102;SDS011;4587;51.434;6.788;2023-06-22T12:56:51;25.92;;;23.63;;
9102;SDS011;4587;51.434;6.788;2023-06-22T12:59:16;26.30;;;23.80;;
9102;SDS011;4587;51.434;6.788;2023-06-22T13:01:42;24.97;;;22.70;;
9102;SDS011;4587;51.434;6.788;2023-06-22T13:04:10;26.40;;;23.77;;
9102;SDS011;4587;51.434;6.788;2023-06-22T13:06:39;26.80;;;24.10;;
9102;SDS011;4587;51.434;6.788;2023-06-22T13:09:09;28.00;;;25.00;;
9102;SDS011;4587;51.434;6.788;2023-06-22T13:11:35;27.33;;;24.73;;
9102;SDS011;4587;51.434;6.788;2023-06-22T13:14:01;27.88;;;25.15;;
9102;SDS011;4587;51.434;6.788;2023-06-22T13:16:26;27.43;;;24.73;;
9102;SDS011;4587;51.434;6.788;2023-06-22T13:18:52;28.20;;;25.40;;
9102;SDS011;4587;51.434;6.788;2023-06-22T13:21:17;27.85;;;25.15;;
9102;SDS011;4587;51.434;6.788;2023-06-22T13:23:43;26.90;;;24.30;;
9102;SDS011;4587;51.434;6.788;2023-06-22T13:26:08;26.73;;;24.27;;
9102;SDS011;4587;51.434;6.788;2023-06-22T13:28:34;28.27;;;25.55;;
9102;SDS011;4587;51.434;6.788;2023-06-22T13:30:59;28.57;;;25.67;;
9102;SDS011;4587;51.434;6.788;2023-06-22T13:33:25;27.63;;;24.90;;
9102;SDS011;4587;51.434;6.788;2023-06-22T13:35:50;27.47;;;24.87;;
9102;SDS011;4587;51.434;6.788;2023-06-22T13:38:16;27.53;;;24.93;;
9102;SDS011;4587;51.434;6.788;2023-06-22T13:40:42;27.80;;;25.10;;
9102;SDS011;4587;51.434;6.788;2023-06-22T13:43:08;28.30;;;25.57;;
9102;SDS011;4587;51.434;6.788;2023-06-22T13:45:33;27.80;;;25.10;;
9102;SDS011;4587;51.434;6.788;2023-06-22T13:47:59;28.02;;;25.42;;
9102;SDS011;4587;51.434;6.788;2023-06-22T13:50:25;30.10;;;27.40;;
9102;SDS011;4587;51.434;6.788;2023-06-22T13:52:50;28.30;;;25.73;;
9102;SDS011;4587;51.434;6.788;2023-06-22T13:55:16;28.95;;;26.23;;
9102;SDS011;4587;51.434;6.788;2023-06-22T13:57:42;29.57;;;26.70;;
9102;SDS011;4587;51.434;6.788;2023-06-22T14:00:08;29.17;;;26.52;;
9102;SDS011;4587;51.434;6.788;2023-06-22T14:02:34;28.03;;;25.53;;
9102;SDS011;4587;51.434;6.788;2023-06-22T14:05:00;24.97;;;22.77;;
9102;SDS011;4587;51.434;6.788;2023-06-22T14:07:27;24.13;;;21.95;;
9102;SDS011;4587;51.434;6.788;2023-06-22T14:09:52;27.23;;;24.48;;
9102;SDS011;4587;51.434;6.788;2023-06-22T14:12:18;26.87;;;24.30;;
9102;SDS011;4587;51.434;6.788;2023-06-22T14:14:44;26.05;;;23.55;;
9102;SDS011;4587;51.434;6.788;2023-06-22T14:17:10;26.53;;;24.13;;
9102;SDS011;4587;51.434;6.788;2023-06-22T14:19:35;26.60;;;24.00;;
9102;SDS011;4587;51.434;6.788;2023-06-22T14:22:01;26.83;;;24.43;;
9102;SDS011;4587;51.434;6.788;2023-06-22T14:24:27;25.40;;;23.17;;
9102;SDS011;4587;51.434;6.788;2023-06-22T14:26:53;27.73;;;25.23;;
9102;SDS011;4587;51.434;6.788;2023-06-22T14:29:20;27.47;;;24.73;;
9102;SDS011;4587;51.434;6.788;2023-06-22T14:31:46;24.85;;;22.45;;
9102;SDS011;4587;51.434;6.788;2023-06-22T14:34:13;25.77;;;23.38;;
9102;SDS011;4587;51.434;6.788;2023-06-22T14:36:38;26.63;;;24.00;;
9102;SDS011;4587;51.434;6.788;2023-06-22T14:39:04;26.67;;;24.25;;
9102;SDS011;4587;51.434;6.788;2023-06-22T14:41:30;25.97;;;23.57;;
9102;SDS011;4587;51.434;6.788;2023-06-22T14:43:56;26.93;;;24.53;;
9102;SDS011;4587;51.434;6.788;2023-06-22T14:46:21;25.83;;;23.42;;
9102;SDS011;4587;51.434;6.788;2023-06-22T14:48:47;26.77;;;24.27;;
9102;SDS011;4587;51.434;6.788;2023-06-22T14:51:13;25.48;;;23.10;;
9102;SDS011;4587;51.434;6.788;2023-06-22T14:53:38;27.17;;;24.47;;
9102;SDS011;4587;51.434;6.788;2023-06-22T14:56:04;25.73;;;23.30;;
9102;SDS011;4587;51.434;6.788;2023-06-22T14:58:30;26.80;;;24.27;;